Bucktown, Indiana
Current Conditions -  °F | °C
As of 3:35 PM on Friday 21 Nov 2014 (Local Time) from KRSV Reporting Station
Clear Clear  
Wind Chill: 32°   Ceiling: Unl
Heat Index: 38°   Visibility: 10mi
Dew Point: 14°   Wind: 8mph
Humidity: 37%   Direction: 130°SE
Pressure: 30.41"   Gusts: NA
Location:  38.9636°N, 87.3568°W
Report Text: KRSV 212035Z AUTO 13007KT 10SM CLR 03/M10 A3041 RMK AO2 T00341100
Loading
Personal Weather Stations






























Interactive Weather Map New forecast layout! Learn more

10-Day Weather Forecast

Advertisements
Track Severe Weather on mobile